Hye, Texas
Current Conditions -  °F | °C
As of 7:35 PM on Thursday 18 Dec 2014 (Local Time) from KT82 Reporting Station
Broken Clouds Broken Clouds  
Wind Chill: 56°   Ceiling: 500
Heat Index: 56°   Visibility: 10mi
Dew Point: 54°   Wind: 6mph
Humidity: 94%   Direction: 80°E
Pressure: 30.06"   Gusts: NA
Location:  30.24°N, 98.57°W
Report Text: KT82 190135Z AUTO 08005KT 10SM BKN005 13/12 A3006 RMK AO2 T01310122
Loading
Personal Weather Stations






























Interactive Weather Map New forecast layout! Learn more

10-Day Weather Forecast

Advertisements
Track Severe Weather on mobile